Time;durP1;ratioP1;P1;durP2;ratioP2;P2;SDS_P1;SDS_P2;PMS_P1;PMS_P2;Temp;Humidity;BMP_temperature;BMP_pressure;BME280_temperature;BME280_humidity;BME280_pressure;Samples;Min_cycle;Max_cycle;Signal;HPM_P1;HPM_P2
2021/01/03 00:00:59;;;;;;;30.30;18.80;;;-0.20;99.90;;;;;;5025857;28;20056;-74
2021/01/03 00:03:26;;;;;;;30.45;19.35;;;-0.10;99.90;;;;;;5028147;28;20052;-74
2021/01/03 00:05:53;;;;;;;27.85;17.58;;;-0.20;99.90;;;;;;5028475;28;20067;-75
2021/01/03 00:08:20;;;;;;;29.13;17.67;;;-0.20;99.90;;;;;;5045332;28;20055;-75
2021/01/03 00:10:46;;;;;;;29.58;17.55;;;-0.20;99.90;;;;;;5028271;28;20595;-74
2021/01/03 00:13:12;;;;;;;29.25;17.00;;;-0.20;99.90;;;;;;5027836;28;20049;-75
2021/01/03 00:15:39;;;;;;;28.27;17.50;;;-0.20;99.90;;;;;;5045952;28;20103;-75
2021/01/03 00:18:06;;;;;;;24.15;16.75;;;-0.20;99.90;;;;;;5045327;28;20118;-74
2021/01/03 00:20:33;;;;;;;25.33;16.52;;;-0.20;99.90;;;;;;5028205;28;20069;-75
2021/01/03 00:22:59;;;;;;;26.65;17.23;;;-0.20;99.90;;;;;;5045635;28;20053;-74
2021/01/03 00:25:28;;;;;;;31.63;19.05;;;-0.30;99.90;;;;;;5045552;28;20045;-75
2021/01/03 00:27:55;;;;;;;28.50;17.40;;;-0.30;99.90;;;;;;5045143;28;20053;-74
2021/01/03 00:30:24;;;;;;;30.73;18.73;;;-0.30;99.90;;;;;;5027777;28;20044;-75
2021/01/03 00:32:51;;;;;;;29.33;18.23;;;-0.30;99.90;;;;;;5027132;28;20048;-74
2021/01/03 00:35:25;;;;;;;26.75;17.20;;;-0.30;99.90;;;;;;5028005;28;20041;-76
2021/01/03 00:37:52;;;;;;;25.23;16.85;;;-0.30;99.90;;;;;;5027614;28;20041;-74
2021/01/03 00:40:21;;;;;;;27.15;17.42;;;-0.30;99.90;;;;;;5044748;28;20107;-76
2021/01/03 00:42:47;;;;;;;24.70;16.02;;;-0.40;99.90;;;;;;5027411;28;20153;-74
2021/01/03 00:45:14;;;;;;;28.88;18.08;;;-0.40;99.90;;;;;;5028137;28;20049;-74
2021/01/03 00:47:41;;;;;;;26.40;17.13;;;-0.40;99.90;;;;;;5027138;28;20048;-75
2021/01/03 00:50:10;;;;;;;32.03;16.63;;;-0.40;99.90;;;;;;5027137;28;20463;-75
2021/01/03 00:52:37;;;;;;;25.98;17.27;;;-0.40;99.90;;;;;;5027476;28;20048;-74
2021/01/03 00:55:06;;;;;;;26.85;16.80;;;-0.40;99.90;;;;;;5044522;28;20056;-74
2021/01/03 00:57:32;;;;;;;32.15;17.25;;;-0.40;99.90;;;;;;5044704;28;20037;-74
2021/01/03 00:59:58;;;;;;;25.20;15.57;;;-0.40;99.90;;;;;;5045487;28;20103;-74
2021/01/03 01:02:26;;;;;;;24.35;15.65;;;-0.40;99.90;;;;;;5026605;28;20510;-75
2021/01/03 01:04:53;;;;;;;26.95;16.13;;;-0.40;99.90;;;;;;5027102;28;20045;-75
2021/01/03 01:07:19;;;;;;;24.83;15.05;;;-0.40;99.90;;;;;;5027495;28;20391;-75
2021/01/03 01:09:45;;;;;;;24.48;15.75;;;-0.40;99.90;;;;;;5026617;28;20110;-75
2021/01/03 01:12:12;;;;;;;21.85;14.55;;;-0.40;99.90;;;;;;5026949;28;20110;-75
2021/01/03 01:14:38;;;;;;;26.08;15.05;;;-0.40;99.90;;;;;;5044297;28;20102;-75
2021/01/03 01:17:07;;;;;;;22.92;15.00;;;-0.50;99.90;;;;;;5026362;28;20059;-75
2021/01/03 01:19:34;;;;;;;25.33;15.77;;;-0.40;99.90;;;;;;5026577;28;20073;-74
2021/01/03 01:22:01;;;;;;;22.30;15.05;;;-0.40;99.90;;;;;;5045024;28;20523;-74
2021/01/03 01:24:28;;;;;;;26.40;15.07;;;-0.40;99.90;;;;;;5026005;28;20491;-74
2021/01/03 01:26:56;;;;;;;21.48;14.35;;;-0.40;99.90;;;;;;5044732;28;20060;-74
2021/01/03 01:29:23;;;;;;;21.67;14.85;;;-0.40;99.90;;;;;;5044413;28;20044;-75
2021/01/03 01:31:49;;;;;;;25.50;14.98;;;-0.40;99.90;;;;;;5043896;28;20045;-75
2021/01/03 01:34:16;;;;;;;25.40;16.05;;;-0.40;99.90;;;;;;5026272;28;20049;-74
2021/01/03 01:36:42;;;;;;;24.73;15.45;;;-0.40;99.90;;;;;;5026116;28;20124;-74
2021/01/03 01:39:09;;;;;;;20.88;13.65;;;-0.40;99.90;;;;;;5025498;28;20044;-74
2021/01/03 01:41:35;;;;;;;22.65;14.55;;;-0.40;99.90;;;;;;5026398;28;20052;-75
2021/01/03 01:44:03;;;;;;;23.65;14.38;;;-0.40;99.90;;;;;;5012592;28;20136;-74
2021/01/03 01:46:43;;;;;;;22.60;14.20;;;-0.40;99.90;;;;;;5025898;28;20140;-75
2021/01/03 01:49:13;;;;;;;22.63;14.50;;;-0.40;99.90;;;;;;5026307;28;20482;-75
2021/01/03 01:51:49;;;;;;;22.42;14.57;;;-0.40;99.90;;;;;;5026376;28;20110;-74
2021/01/03 01:54:22;;;;;;;23.30;15.43;;;-0.40;99.90;;;;;;5043578;28;20053;-74
2021/01/03 01:57:14;;;;;;;22.40;14.80;;;-0.40;99.90;;;;;;5026796;28;20495;-75
2021/01/03 01:59:51;;;;;;;22.80;14.90;;;-0.40;99.90;;;;;;5044123;28;20077;-74
2021/01/03 02:02:33;;;;;;;26.42;15.93;;;-0.40;99.90;;;;;;5025730;28;20056;-75
2021/01/03 02:05:05;;;;;;;24.38;15.70;;;-0.40;99.90;;;;;;5026113;28;20130;-74
2021/01/03 02:07:52;;;;;;;22.20;15.48;;;-0.40;99.90;;;;;;5043993;28;20075;-74
2021/01/03 02:10:25;;;;;;;26.67;15.55;;;-0.40;99.90;;;;;;5010590;28;20049;-75
2021/01/03 02:13:21;;;;;;;24.52;15.38;;;-0.40;99.90;;;;;;5038879;28;20095;-74
2021/01/03 02:15:49;;;;;;;25.83;15.75;;;-0.40;99.90;;;;;;5044393;28;20115;-74
2021/01/03 02:18:16;;;;;;;27.88;18.23;;;-0.50;99.90;;;;;;5025258;28;20129;-73
2021/01/03 02:21:20;;;;;;;27.45;16.50;;;-0.40;99.90;;;;;;5043634;28;20061;-74
2021/01/03 02:24:07;;;;;;;24.38;16.30;;;-0.50;99.90;;;;;;5031182;28;20503;-74
2021/01/03 02:26:45;;;;;;;25.73;16.63;;;-0.50;99.90;;;;;;5025890;28;20099;-74
2021/01/03 02:29:14;;;;;;;27.33;16.95;;;-0.50;99.90;;;;;;5025664;28;20089;-74
2021/01/03 02:31:47;;;;;;;27.38;17.75;;;-0.50;99.90;;;;;;5025055;28;20441;-74
2021/01/03 02:34:20;;;;;;;27.70;17.98;;;-0.50;99.90;;;;;;5025412;28;20656;-74
2021/01/03 02:36:56;;;;;;;28.48;17.88;;;-0.50;99.90;;;;;;5022804;28;20045;-74
2021/01/03 02:39:41;;;;;;;28.77;18.73;;;-0.50;99.90;;;;;;5021494;28;20056;-74
2021/01/03 02:42:16;;;;;;;28.40;17.77;;;-0.50;99.90;;;;;;5042187;28;20052;-74
2021/01/03 02:44:43;;;;;;;30.05;18.17;;;-0.60;99.90;;;;;;5025844;28;20099;-74
2021/01/03 02:47:11;;;;;;;28.42;19.10;;;-0.60;99.90;;;;;;5025176;28;20234;-74
2021/01/03 02:49:37;;;;;;;30.23;19.23;;;-0.60;99.90;;;;;;5025113;28;20564;-74
2021/01/03 02:52:13;;;;;;;31.45;19.58;;;-0.60;99.90;;;;;;5044570;28;20049;-74
2021/01/03 02:54:39;;;;;;;35.38;20.30;;;-0.60;99.90;;;;;;5028914;28;20095;-74
2021/01/03 02:57:06;;;;;;;30.90;19.58;;;-0.70;99.90;;;;;;5029874;28;20059;-74
2021/01/03 02:59:33;;;;;;;35.65;20.60;;;-0.70;99.90;;;;;;5029146;28;20057;-74
2021/01/03 03:01:59;;;;;;;33.20;21.10;;;-0.70;99.90;;;;;;5028769;28;20084;-74
2021/01/03 03:04:26;;;;;;;35.40;20.83;;;-0.70;99.90;;;;;;5028691;28;20052;-75
2021/01/03 03:06:53;;;;;;;35.88;21.83;;;-0.70;99.90;;;;;;5029560;28;20106;-74
2021/01/03 03:09:19;;;;;;;36.30;21.80;;;-0.70;99.90;;;;;;5028306;28;20048;-75
2021/01/03 03:11:48;;;;;;;36.38;21.77;;;-0.70;99.90;;;;;;5042036;28;20585;-73
2021/01/03 03:14:14;;;;;;;33.47;20.08;;;-0.80;99.90;;;;;;5021831;28;20190;-75
2021/01/03 03:16:41;;;;;;;34.55;20.63;;;-0.70;99.90;;;;;;5027801;28;20095;-73
2021/01/03 03:19:08;;;;;;;35.78;22.25;;;-0.70;99.90;;;;;;5029075;28;20053;-74
2021/01/03 03:21:35;;;;;;;34.17;21.70;;;-0.80;99.90;;;;;;5029086;28;20536;-75
2021/01/03 03:24:01;;;;;;;34.83;21.10;;;-0.80;99.90;;;;;;5028442;28;20118;-74
2021/01/03 03:26:27;;;;;;;34.40;21.27;;;-0.80;99.90;;;;;;5046506;28;20479;-74
2021/01/03 03:28:53;;;;;;;36.30;21.58;;;-0.80;99.90;;;;;;5028806;28;20119;-74
2021/01/03 03:31:26;;;;;;;34.28;21.08;;;-0.80;99.90;;;;;;5045907;28;20076;-74
2021/01/03 03:33:53;;;;;;;32.85;20.75;;;-0.80;99.90;;;;;;5046168;28;20514;-74
2021/01/03 03:36:19;;;;;;;36.28;22.98;;;-0.80;99.90;;;;;;5028391;28;20416;-75
2021/01/03 03:38:46;;;;;;;35.38;22.33;;;-0.80;99.90;;;;;;5028532;28;20512;-74
2021/01/03 03:41:20;;;;;;;30.35;20.42;;;-0.90;99.90;;;;;;5046448;28;20052;-74
2021/01/03 03:43:48;;;;;;;36.72;23.33;;;-0.90;99.90;;;;;;5028517;28;20599;-75
2021/01/03 03:46:15;;;;;;;35.50;22.90;;;-0.90;99.90;;;;;;5028145;28;20115;-74
2021/01/03 03:48:41;;;;;;;35.60;22.70;;;-0.90;99.90;;;;;;5028375;28;20485;-74
2021/01/03 03:51:08;;;;;;;35.88;22.42;;;-0.90;99.90;;;;;;5028528;28;20694;-74
2021/01/03 03:53:34;;;;;;;40.10;23.25;;;-0.90;99.90;;;;;;5027978;28;20553;-74
2021/01/03 03:56:00;;;;;;;38.72;23.67;;;-0.90;99.90;;;;;;5027052;28;20048;-74
2021/01/03 03:58:27;;;;;;;39.47;23.45;;;-0.90;99.90;;;;;;5027451;28;20053;-74
2021/01/03 04:00:53;;;;;;;36.50;22.63;;;-0.80;99.90;;;;;;5042098;28;20073;-74
2021/01/03 04:03:20;;;;;;;35.75;22.85;;;-0.90;99.90;;;;;;5041525;28;20458;-75
2021/01/03 04:05:47;;;;;;;37.15;23.02;;;-0.90;99.90;;;;;;5044502;28;20410;-74
2021/01/03 04:08:14;;;;;;;36.28;22.33;;;-0.90;99.90;;;;;;5025188;28;20090;-75
2021/01/03 04:10:41;;;;;;;33.13;20.88;;;-0.80;99.90;;;;;;5027826;28;20080;-74
2021/01/03 04:13:09;;;;;;;35.80;22.85;;;-0.80;99.90;;;;;;5011172;28;20136;-74
2021/01/03 04:15:35;;;;;;;39.78;23.08;;;-0.80;99.90;;;;;;5046731;28;20085;-74
2021/01/03 04:18:04;;;;;;;39.92;22.85;;;-0.80;99.90;;;;;;5027053;28;20041;-74
2021/01/03 04:20:31;;;;;;;37.72;23.38;;;-0.80;99.90;;;;;;5027872;28;20132;-74
2021/01/03 04:23:03;;;;;;;37.13;23.48;;;-0.80;99.90;;;;;;5045610;28;20717;-74
2021/01/03 04:25:30;;;;;;;38.58;24.40;;;-0.90;99.90;;;;;;5027295;28;20060;-74
2021/01/03 04:27:56;;;;;;;39.55;24.35;;;-0.90;99.90;;;;;;5027215;28;20126;-74
2021/01/03 04:30:25;;;;;;;39.63;24.10;;;-0.80;99.90;;;;;;5028194;28;20080;-74
2021/01/03 04:32:51;;;;;;;37.22;23.17;;;-0.80;99.90;;;;;;5045004;28;20122;-74
2021/01/03 04:35:20;;;;;;;37.28;22.75;;;-0.90;99.90;;;;;;5027416;28;20179;-74
2021/01/03 04:37:49;;;;;;;35.88;22.90;;;-0.90;99.90;;;;;;5027808;28;20056;-74
2021/01/03 04:40:27;;;;;;;32.10;21.63;;;-0.80;99.90;;;;;;5026993;28;20068;-74
2021/01/03 04:42:59;;;;;;;35.60;22.55;;;-0.90;99.90;;;;;;5045175;28;20539;-74
2021/01/03 04:45:39;;;;;;;36.42;23.80;;;-0.80;99.90;;;;;;5027874;28;20055;-74
2021/01/03 04:48:26;;;;;;;36.50;22.55;;;-0.90;99.90;;;;;;5044677;28;20049;-74
2021/01/03 04:51:10;;;;;;;37.13;23.45;;;-0.90;99.90;;;;;;5041834;28;20057;-74
2021/01/03 04:53:54;;;;;;;37.55;22.40;;;-0.90;99.90;;;;;;5026232;28;20507;-74
2021/01/03 04:56:30;;;;;;;38.58;22.85;;;-0.90;99.90;;;;;;5027020;28;20075;-74
2021/01/03 04:59:05;;;;;;;35.08;23.30;;;-0.90;99.90;;;;;;5026693;28;20063;-74
2021/01/03 05:01:38;;;;;;;37.50;23.10;;;-0.90;99.90;;;;;;5027031;28;20068;-74
2021/01/03 05:04:27;;;;;;;38.58;23.27;;;-0.90;99.90;;;;;;5027033;28;20522;-74
2021/01/03 05:06:58;;;;;;;38.95;22.92;;;-0.90;99.90;;;;;;5027382;28;20140;-74
2021/01/03 05:09:24;;;;;;;37.58;22.95;;;-0.90;99.90;;;;;;5025676;28;20049;-74
2021/01/03 05:12:05;;;;;;;42.78;25.20;;;-0.90;99.90;;;;;;5041047;28;20053;-74
2021/01/03 05:14:46;;;;;;;41.47;24.48;;;-0.90;99.90;;;;;;5023363;28;20091;-73
2021/01/03 05:17:13;;;;;;;40.58;24.80;;;-0.90;99.90;;;;;;5043991;28;20079;-73
2021/01/03 05:19:39;;;;;;;41.58;25.70;;;-0.90;99.90;;;;;;5026432;28;20393;-74
2021/01/03 05:22:05;;;;;;;40.97;24.73;;;-0.90;99.90;;;;;;5027343;28;20053;-73
2021/01/03 05:24:42;;;;;;;41.63;24.80;;;-0.90;99.90;;;;;;5026095;28;20423;-75
2021/01/03 05:27:19;;;;;;;44.03;26.13;;;-0.90;99.90;;;;;;5027246;28;20056;-74
2021/01/03 05:29:46;;;;;;;40.75;25.13;;;-0.90;99.90;;;;;;5024969;28;20112;-74
2021/01/03 05:32:25;;;;;;;43.28;25.52;;;-0.90;99.90;;;;;;5043424;28;20212;-74
2021/01/03 05:34:51;;;;;;;39.95;24.83;;;-0.80;99.90;;;;;;5044426;28;20115;-74
2021/01/03 05:37:27;;;;;;;41.83;25.05;;;-0.80;99.90;;;;;;5018715;28;20061;-74
2021/01/03 05:39:53;;;;;;;38.00;24.08;;;-0.80;99.90;;;;;;5021732;28;20531;-74
2021/01/03 05:42:19;;;;;;;41.13;24.92;;;-0.80;99.90;;;;;;5026255;28;20644;-75
2021/01/03 05:45:06;;;;;;;39.22;23.60;;;-0.80;99.90;;;;;;5026484;28;20159;-74
2021/01/03 05:47:38;;;;;;;40.55;24.38;;;-0.80;99.90;;;;;;5043533;28;20056;-73
2021/01/03 05:50:41;;;;;;;45.95;25.73;;;-0.80;99.90;;;;;;5026564;28;20083;-73
2021/01/03 05:53:28;;;;;;;41.53;24.80;;;-0.80;99.90;;;;;;4943331;28;20079;-73
2021/01/03 05:55:55;;;;;;;45.10;25.67;;;-0.90;99.90;;;;;;4927320;29;20074;-73
2021/01/03 05:58:27;;;;;;;41.35;25.02;;;-0.90;99.90;;;;;;4942764;28;20126;-73
2021/01/03 06:00:54;;;;;;;;;;;-0.80;99.90;;;;;;4943968;28;20129;-74
2021/01/03 06:03:23;;;;;;;43.25;23.23;;;-0.80;99.90;;;;;;4942486;28;20013;-73
2021/01/03 06:06:01;;;;;;;40.70;24.98;;;-0.80;99.90;;;;;;4942978;28;20051;-73
2021/01/03 06:08:31;;;;;;;42.20;25.02;;;-0.80;99.90;;;;;;4926357;29;20727;-74
2021/01/03 06:11:15;;;;;;;46.33;25.95;;;-0.80;99.90;;;;;;4926964;29;20062;-74
2021/01/03 06:13:52;;;;;;;40.58;24.95;;;-0.80;99.90;;;;;;4942982;28;20158;-73
2021/01/03 06:16:24;;;;;;;40.35;24.30;;;-0.80;99.90;;;;;;4926802;29;20735;-74
2021/01/03 06:19:00;;;;;;;41.50;24.67;;;-0.80;99.90;;;;;;4935211;28;20052;-74
2021/01/03 06:21:32;;;;;;;47.03;27.13;;;-0.80;99.90;;;;;;4942114;28;20165;-74
2021/01/03 06:24:28;;;;;;;42.85;25.30;;;-0.80;99.90;;;;;;4941956;28;20066;-73
2021/01/03 06:27:03;;;;;;;47.15;26.55;;;-0.80;99.90;;;;;;4978847;28;20060;-73
2021/01/03 06:29:48;;;;;;;40.95;26.17;;;-0.80;99.90;;;;;;5028704;28;20083;-74
2021/01/03 06:32:45;;;;;;;45.35;25.35;;;-0.80;99.90;;;;;;5044675;28;20146;-73
2021/01/03 06:35:41;;;;;;;42.58;25.30;;;-0.90;99.90;;;;;;5028891;28;20049;-74
2021/01/03 06:38:26;;;;;;;41.22;24.05;;;-0.80;99.90;;;;;;5028499;28;20146;-73
2021/01/03 06:41:22;;;;;;;42.17;24.63;;;-0.90;99.90;;;;;;5027389;28;20041;-74
2021/01/03 06:44:00;;;;;;;40.35;23.52;;;-0.90;99.90;;;;;;5047701;28;20129;-73
2021/01/03 06:46:42;;;;;;;41.40;23.75;;;-0.90;99.90;;;;;;5046776;28;20841;-74
2021/01/03 06:49:43;;;;;;;41.33;24.95;;;-0.90;99.90;;;;;;5045475;28;20107;-74
2021/01/03 06:52:57;;;;;;;46.75;26.08;;;-0.90;99.90;;;;;;5029235;28;20041;-74
2021/01/03 06:55:31;;;;;;;40.90;24.40;;;-0.90;99.90;;;;;;5045651;28;20092;-74
2021/01/03 06:58:11;;;;;;;40.85;24.50;;;-0.90;99.90;;;;;;5029090;28;20091;-73
2021/01/03 07:00:51;;;;;;;43.45;24.45;;;-0.90;99.90;;;;;;5029040;28;20163;-73
2021/01/03 07:03:23;;;;;;;40.28;24.17;;;-0.90;99.90;;;;;;5040252;28;20166;-74
2021/01/03 07:06:03;;;;;;;45.20;26.98;;;-0.80;99.90;;;;;;5043470;28;20128;-74
2021/01/03 07:08:42;;;;;;;45.05;25.75;;;-0.80;99.90;;;;;;5046374;28;20052;-73
2021/01/03 07:11:46;;;;;;;44.42;27.13;;;-0.80;99.90;;;;;;5046850;28;20061;-73
2021/01/03 07:14:21;;;;;;;44.08;25.52;;;-0.80;99.90;;;;;;5028304;28;20049;-73
2021/01/03 07:17:08;;;;;;;46.67;26.40;;;-0.90;99.90;;;;;;5046642;28;20426;-74
2021/01/03 07:19:41;;;;;;;48.90;27.80;;;-0.90;99.90;;;;;;5041095;28;20041;-73
2021/01/03 07:22:13;;;;;;;44.35;26.80;;;-0.80;99.90;;;;;;5047088;28;20434;-73
2021/01/03 07:24:51;;;;;;;45.40;26.98;;;-0.80;99.90;;;;;;5046537;28;20072;-73
2021/01/03 07:27:35;;;;;;;47.50;27.35;;;-0.80;99.90;;;;;;5047002;28;20084;-73
2021/01/03 07:30:05;;;;;;;48.08;27.23;;;-0.80;99.90;;;;;;5047246;28;20591;-73
2021/01/03 07:32:32;;;;;;;46.65;26.23;;;-0.80;99.90;;;;;;5045886;28;20073;-73
2021/01/03 07:35:02;;;;;;;43.30;25.17;;;-0.80;99.90;;;;;;5046501;28;20053;-75
2021/01/03 07:37:31;;;;;;;45.40;26.88;;;-0.70;99.90;;;;;;5027697;28;20072;-82
2021/01/03 07:40:08;;;;;;;43.85;25.77;;;-0.70;99.90;;;;;;5044524;28;20072;-77
2021/01/03 07:42:37;;;;;;;44.58;27.00;;;-0.70;99.90;;;;;;5028043;28;20136;-80
2021/01/03 07:45:17;;;;;;;42.33;26.90;;;-0.60;99.90;;;;;;5046551;28;20060;-78
2021/01/03 07:47:54;;;;;;;44.00;26.73;;;-0.60;99.90;;;;;;5041492;28;20429;-77
2021/01/03 07:50:30;;;;;;;41.67;25.58;;;-0.60;99.90;;;;;;5026841;28;20483;-78
2021/01/03 07:53:17;;;;;;;44.78;26.63;;;-0.60;99.90;;;;;;5041651;28;20091;-77
2021/01/03 07:55:44;;;;;;;44.13;26.45;;;-0.50;99.90;;;;;;5043929;28;20052;-80
2021/01/03 07:58:14;;;;;;;41.55;25.65;;;-0.50;99.90;;;;;;5042567;28;20143;-82
2021/01/03 08:00:42;;;;;;;44.97;26.23;;;-0.40;99.90;;;;;;5040860;28;20128;-79
2021/01/03 08:03:18;;;;;;;42.22;25.70;;;-0.40;99.90;;;;;;5027489;28;20066;-80
2021/01/03 08:05:45;;;;;;;40.35;25.48;;;-0.30;99.90;;;;;;5030976;28;20522;-74
2021/01/03 08:08:19;;;;;;;43.53;24.98;;;-0.30;99.90;;;;;;5032217;28;20045;-74
2021/01/03 08:10:48;;;;;;;38.88;24.45;;;-0.20;99.90;;;;;;5030459;28;20057;-74
2021/01/03 08:13:21;;;;;;;39.03;24.00;;;-0.20;99.90;;;;;;5007311;28;20065;-73
2021/01/03 08:15:48;;;;;;;36.63;24.67;;;-0.20;99.90;;;;;;5026033;28;20131;-75
2021/01/03 08:18:18;;;;;;;36.80;23.65;;;-0.10;99.90;;;;;;5016933;28;20037;-73
2021/01/03 08:20:45;;;;;;;37.55;24.42;;;-0.10;99.90;;;;;;5034743;28;20045;-73
2021/01/03 08:23:28;;;;;;;36.00;22.83;;;-0.10;99.90;;;;;;5032781;28;20121;-74
2021/01/03 08:26:12;;;;;;;38.15;23.58;;;0.00;99.90;;;;;;5016132;28;20118;-74
2021/01/03 08:29:15;;;;;;;34.95;23.10;;;0.10;99.90;;;;;;5021501;28;20037;-74
2021/01/03 08:31:51;;;;;;;36.47;23.60;;;0.10;99.90;;;;;;5018182;28;20100;-74
2021/01/03 08:34:28;;;;;;;36.03;22.83;;;0.10;99.90;;;;;;5027328;28;20580;-73
2021/01/03 08:36:54;;;;;;;35.78;23.23;;;0.20;99.90;;;;;;5045808;28;20072;-74
2021/01/03 08:39:26;;;;;;;36.40;22.40;;;0.20;99.90;;;;;;5041318;28;20138;-74
2021/01/03 08:41:57;;;;;;;31.95;21.33;;;0.30;99.90;;;;;;5027597;28;20148;-74
2021/01/03 08:44:26;;;;;;;31.45;20.45;;;0.30;99.90;;;;;;5044757;28;20388;-74
2021/01/03 08:47:23;;;;;;;30.95;21.77;;;0.30;99.90;;;;;;5044845;28;20073;-74
2021/01/03 08:50:10;;;;;;;29.35;20.15;;;0.30;99.90;;;;;;5023158;28;20056;-74
2021/01/03 08:52:37;;;;;;;25.30;18.15;;;0.40;99.90;;;;;;5044095;28;20045;-74
2021/01/03 08:55:17;;;;;;;26.92;17.42;;;0.40;99.90;;;;;;5044563;28;20080;-74
2021/01/03 08:57:52;;;;;;;29.88;19.02;;;0.40;99.90;;;;;;5026849;28;20048;-74
2021/01/03 09:00:21;;;;;;;27.90;19.02;;;0.40;99.90;;;;;;5045101;28;20135;-74
2021/01/03 09:02:52;;;;;;;25.20;18.08;;;0.30;99.90;;;;;;5025970;28;20114;-74
2021/01/03 09:05:19;;;;;;;27.25;18.25;;;0.30;99.90;;;;;;5044956;28;20232;-75
2021/01/03 09:07:46;;;;;;;31.63;21.02;;;0.30;99.90;;;;;;5044527;28;20049;-74
2021/01/03 09:10:25;;;;;;;29.92;20.33;;;0.30;99.90;;;;;;5026371;28;20052;-74
2021/01/03 09:13:07;;;;;;;28.42;20.23;;;0.30;99.90;;;;;;5044267;28;20079;-75
2021/01/03 09:15:37;;;;;;;28.75;19.52;;;0.30;99.90;;;;;;5027066;28;20073;-74
2021/01/03 09:18:15;;;;;;;28.10;19.55;;;0.40;99.90;;;;;;5024623;28;20112;-75
2021/01/03 09:20:45;;;;;;;30.52;20.58;;;0.40;99.90;;;;;;5043688;28;20106;-74
2021/01/03 09:23:20;;;;;;;31.00;19.00;;;0.40;99.90;;;;;;5044572;28;20171;-74
2021/01/03 09:25:53;;;;;;;26.48;18.42;;;0.50;99.90;;;;;;5044517;28;20057;-74
2021/01/03 09:28:29;;;;;;;27.92;18.60;;;0.60;99.90;;;;;;5026207;28;20477;-75
2021/01/03 09:31:28;;;;;;;28.45;18.25;;;0.60;99.90;;;;;;5044342;28;20092;-74
2021/01/03 09:34:17;;;;;;;27.92;18.65;;;0.70;99.90;;;;;;4989853;28;20056;-75
2021/01/03 09:36:52;;;;;;;26.15;18.08;;;0.70;99.90;;;;;;5035804;28;20041;-74
2021/01/03 09:39:47;;;;;;;24.80;17.52;;;0.70;99.90;;;;;;5043539;28;20704;-74
2021/01/03 09:42:41;;;;;;;26.08;17.85;;;0.80;99.90;;;;;;5019315;28;20630;-74
2021/01/03 09:45:29;;;;;;;26.17;16.85;;;0.90;99.90;;;;;;5044536;28;20041;-74
2021/01/03 09:47:56;;;;;;;25.35;17.13;;;0.90;99.90;;;;;;5043632;28;20103;-74
2021/01/03 09:50:28;;;;;;;25.00;17.58;;;1.10;99.90;;;;;;5043474;28;20083;-75
2021/01/03 09:53:22;;;;;;;19.13;13.03;;;1.20;99.90;;;;;;5043975;28;20076;-74
2021/01/03 09:56:17;;;;;;;24.02;16.95;;;1.40;99.90;;;;;;5013041;28;20052;-75
2021/01/03 09:58:51;;;;;;;22.17;16.15;;;1.60;99.90;;;;;;5043856;28;20135;-74
2021/01/03 10:01:33;;;;;;;25.17;17.38;;;1.70;99.90;;;;;;5039433;28;20745;-75
2021/01/03 10:04:14;;;;;;;21.67;16.10;;;1.60;99.90;;;;;;5026107;28;20048;-74
2021/01/03 10:06:42;;;;;;;28.27;18.33;;;1.40;99.90;;;;;;5043973;28;20128;-74
2021/01/03 10:09:11;;;;;;;28.17;19.33;;;1.10;99.90;;;;;;5042936;28;20195;-74
2021/01/03 10:11:40;;;;;;;28.42;18.23;;;1.10;99.90;;;;;;5043857;28;20053;-74
2021/01/03 10:14:12;;;;;;;24.25;16.60;;;1.10;99.90;;;;;;5044156;28;20112;-73
2021/01/03 10:16:40;;;;;;;24.33;16.90;;;1.10;99.90;;;;;;5025809;28;20679;-74
2021/01/03 10:19:18;;;;;;;22.25;16.52;;;1.20;99.90;;;;;;5025845;28;20049;-73
2021/01/03 10:21:45;;;;;;;22.38;16.08;;;1.30;99.90;;;;;;5043838;28;20464;-74
2021/01/03 10:24:25;;;;;;;21.58;15.82;;;1.30;99.90;;;;;;5042776;28;20118;-73
2021/01/03 10:27:13;;;;;;;25.48;16.92;;;1.40;99.90;;;;;;5043971;28;20103;-73
2021/01/03 10:29:40;;;;;;;26.17;17.25;;;1.30;99.90;;;;;;5025400;28;20055;-74
2021/01/03 10:32:07;;;;;;;22.65;17.00;;;1.30;99.90;;;;;;5024785;28;20048;-73
2021/01/03 10:34:33;;;;;;;22.58;15.80;;;1.20;99.90;;;;;;5043391;28;20037;-73
2021/01/03 10:37:00;;;;;;;25.77;17.30;;;1.10;99.90;;;;;;5043591;28;20087;-73
2021/01/03 10:39:29;;;;;;;22.35;16.80;;;1.00;99.90;;;;;;5042667;28;20041;-74
2021/01/03 10:41:57;;;;;;;25.35;18.38;;;1.00;99.90;;;;;;5043556;28;20045;-74
2021/01/03 10:44:24;;;;;;;25.25;17.35;;;1.00;99.90;;;;;;5042622;28;20120;-73
2021/01/03 10:46:55;;;;;;;27.08;17.27;;;1.00;99.90;;;;;;5042937;28;20096;-73
2021/01/03 10:49:22;;;;;;;25.30;17.50;;;1.00;99.90;;;;;;5043358;28;20049;-74
2021/01/03 10:51:49;;;;;;;25.27;17.70;;;0.90;99.90;;;;;;5044032;28;20045;-74
2021/01/03 10:54:19;;;;;;;23.92;16.30;;;0.90;99.90;;;;;;5042687;28;20487;-74
2021/01/03 10:57:03;;;;;;;22.23;15.65;;;0.90;99.90;;;;;;5043894;28;20239;-75
2021/01/03 10:59:29;;;;;;;23.15;16.13;;;0.90;99.90;;;;;;5024382;28;20537;-73
2021/01/03 11:01:56;;;;;;;21.73;15.20;;;0.80;99.90;;;;;;5039258;28;20106;-72
2021/01/03 11:04:24;;;;;;;22.85;16.30;;;0.70;99.90;;;;;;5043245;28;20078;-74
2021/01/03 11:06:55;;;;;;;21.27;15.48;;;0.80;99.90;;;;;;5024738;28;20045;-76
2021/01/03 11:09:25;;;;;;;21.00;15.13;;;0.90;99.90;;;;;;5042254;28;20076;-75
2021/01/03 11:11:56;;;;;;;23.17;14.60;;;1.00;99.90;;;;;;5021637;28;20063;-75
2021/01/03 11:14:23;;;;;;;19.58;14.38;;;1.10;99.90;;;;;;5026209;28;20065;-75
2021/01/03 11:16:49;;;;;;;19.90;14.48;;;1.20;99.90;;;;;;5026498;28;20060;-75
2021/01/03 11:19:16;;;;;;;19.92;14.68;;;1.20;99.90;;;;;;5027569;28;20119;-75
2021/01/03 11:21:43;;;;;;;25.27;14.73;;;1.30;99.90;;;;;;5024206;28;20144;-74
2021/01/03 11:24:12;;;;;;;23.50;15.85;;;1.30;99.90;;;;;;5025561;28;20104;-75
2021/01/03 11:26:42;;;;;;;21.80;16.08;;;1.40;99.90;;;;;;5027094;28;20049;-75
2021/01/03 11:29:14;;;;;;;21.27;15.80;;;1.40;99.90;;;;;;5026794;28;20420;-73
2021/01/03 11:31:42;;;;;;;;;;;1.40;99.90;;;;;;5026879;28;20725;-73
2021/01/03 11:34:11;;;;;;;21.60;14.80;;;1.20;99.90;;;;;;5025410;28;19925;-74
2021/01/03 11:36:38;;;;;;;20.30;14.40;;;1.10;99.90;;;;;;5007894;28;20096;-73
2021/01/03 11:39:08;;;;;;;24.20;16.10;;;1.00;99.90;;;;;;5021387;28;20091;-73
2021/01/03 11:41:35;;;;;;;24.50;16.88;;;1.00;99.90;;;;;;5025508;28;20077;-73
2021/01/03 11:44:07;;;;;;;22.80;16.10;;;0.90;99.90;;;;;;5026538;28;20484;-74
2021/01/03 11:46:36;;;;;;;22.48;15.88;;;1.10;99.90;;;;;;5028970;28;20049;-74
2021/01/03 11:49:04;;;;;;;22.83;16.35;;;1.20;99.90;;;;;;5025840;28;20452;-73
2021/01/03 11:51:30;;;;;;;22.13;16.55;;;1.30;99.90;;;;;;5020590;28;20037;-74
2021/01/03 11:53:57;;;;;;;21.25;14.85;;;1.30;99.90;;;;;;5032414;28;20153;-72
2021/01/03 11:56:24;;;;;;;21.23;15.15;;;1.30;99.90;;;;;;5026607;28;20091;-73
2021/01/03 11:58:51;;;;;;;21.98;15.40;;;1.10;99.90;;;;;;5032002;28;20133;-74
2021/01/03 12:01:19;;;;;;;21.90;16.17;;;1.10;99.90;;;;;;5035175;28;20053;-74
2021/01/03 12:03:48;;;;;;;21.35;15.25;;;1.10;99.90;;;;;;5040774;28;20053;-74
2021/01/03 12:06:20;;;;;;;21.33;15.10;;;1.10;99.90;;;;;;5040462;28;20052;-74
2021/01/03 12:08:47;;;;;;;20.80;15.30;;;1.10;99.90;;;;;;5021637;28;20127;-73
2021/01/03 12:11:23;;;;;;;24.27;16.77;;;1.20;99.90;;;;;;5027227;28;20053;-73
2021/01/03 12:13:55;;;;;;;18.48;13.95;;;1.30;99.90;;;;;;5035296;28;20048;-73
2021/01/03 12:16:28;;;;;;;19.77;14.45;;;1.40;99.90;;;;;;5044878;28;20076;-74
2021/01/03 12:18:54;;;;;;;18.55;13.77;;;1.50;99.90;;;;;;5057221;28;20383;-73
2021/01/03 12:21:29;;;;;;;17.65;13.32;;;1.50;99.90;;;;;;5045916;28;20113;-74
2021/01/03 12:23:56;;;;;;;14.18;10.45;;;1.50;99.90;;;;;;5020385;28;20076;-73
2021/01/03 12:26:32;;;;;;;18.48;13.60;;;1.60;99.90;;;;;;5017323;28;20049;-76
2021/01/03 12:28:59;;;;;;;19.17;14.55;;;1.60;99.90;;;;;;5042372;28;20458;-75
2021/01/03 12:31:39;;;;;;;17.77;13.13;;;1.80;99.90;;;;;;5045219;28;20128;-72
2021/01/03 12:34:06;;;;;;;20.52;13.50;;;1.90;99.90;;;;;;5045555;28;20049;-75
2021/01/03 12:36:33;;;;;;;19.38;14.13;;;1.80;99.90;;;;;;5026610;28;20068;-73
2021/01/03 12:39:00;;;;;;;19.65;14.18;;;1.90;99.90;;;;;;5041297;28;20044;-73
2021/01/03 12:41:28;;;;;;;20.73;15.45;;;2.00;99.90;;;;;;5041313;28;20052;-73
2021/01/03 12:43:54;;;;;;;18.55;13.95;;;2.10;99.90;;;;;;5025602;28;20045;-75
2021/01/03 12:46:33;;;;;;;17.90;13.07;;;2.10;99.90;;;;;;5041965;28;20448;-73
2021/01/03 12:49:00;;;;;;;17.92;13.73;;;2.10;99.90;;;;;;5044377;28;20040;-75
2021/01/03 12:51:27;;;;;;;18.10;14.05;;;2.20;99.90;;;;;;5047373;28;20048;-75
2021/01/03 12:53:54;;;;;;;19.00;12.88;;;2.40;99.90;;;;;;5044628;28;20049;-74
2021/01/03 12:56:26;;;;;;;21.52;15.00;;;2.30;99.90;;;;;;5027722;28;20044;-75
2021/01/03 12:58:53;;;;;;;22.60;15.57;;;2.30;99.90;;;;;;5023612;28;20049;-74